createdAt,value
2022-08-22T00:07:58.457Z,89.09
2022-08-22T00:17:58.645Z,89.03
2022-08-22T00:27:58.741Z,90.75
2022-08-22T00:37:59.088Z,88.32
2022-08-22T00:47:59.201Z,90.74
2022-08-22T00:57:59.450Z,90.39
2022-08-22T01:07:59.460Z,92.06
2022-08-22T01:17:59.613Z,92.21
2022-08-22T01:27:59.890Z,91.75
2022-08-22T01:37:59.911Z,90.74
2022-08-22T01:48:00.187Z,91.45
2022-08-22T01:58:00.725Z,91.14
2022-08-22T02:08:00.494Z,90.80
2022-08-22T02:18:01.222Z,92.16
2022-08-22T02:28:00.637Z,95.24
2022-08-22T02:38:00.697Z,96.97
2022-08-22T02:48:00.860Z,96.77
2022-08-22T02:58:01.108Z,97.98
2022-08-22T03:08:01.164Z,99.00
2022-08-22T03:18:01.323Z,99.99
2022-08-22T03:28:01.727Z,99.99
2022-08-22T03:38:01.669Z,99.99
2022-08-22T03:48:01.846Z,99.60
2022-08-22T03:58:02.006Z,99.60
2022-08-22T04:08:02.187Z,99.99
2022-08-22T04:18:02.307Z,99.99
2022-08-22T04:28:02.558Z,99.99
2022-08-22T04:38:02.632Z,99.99
2022-08-22T04:48:02.807Z,99.99
2022-08-22T04:58:06.494Z,99.99
2022-08-22T05:08:03.159Z,99.19
2022-08-22T05:18:03.316Z,99.51
2022-08-22T05:28:03.476Z,97.42
2022-08-22T05:38:03.648Z,96.52
2022-08-22T05:48:03.864Z,97.13
2022-08-22T05:58:04.043Z,97.60
2022-08-22T06:08:04.419Z,95.72
2022-08-22T06:18:04.360Z,93.90
2022-08-22T06:28:04.512Z,92.29
2022-08-22T06:38:04.945Z,91.30
2022-08-22T06:48:05.289Z,90.20
2022-08-22T06:58:04.929Z,88.35
2022-08-22T07:08:05.096Z,88.61
2022-08-22T07:18:05.271Z,85.52
2022-08-22T07:28:05.485Z,80.55
2022-08-22T07:38:05.675Z,77.46
2022-08-22T07:48:05.833Z,76.48
2022-08-22T07:58:05.994Z,76.21
2022-08-22T08:08:06.199Z,74.50
2022-08-22T08:18:06.377Z,71.76
2022-08-22T08:28:06.782Z,68.76
2022-08-22T08:38:06.758Z,69.93
2022-08-22T08:48:06.930Z,66.09
2022-08-22T08:58:07.294Z,67.50
2022-08-22T09:08:11.663Z,62.69
2022-08-22T09:18:07.555Z,53.50
2022-08-22T09:28:07.495Z,51.13
2022-08-22T09:38:07.816Z,51.69
2022-08-22T09:48:08.081Z,53.87
2022-08-22T09:58:11.495Z,56.38
2022-08-22T10:08:08.327Z,52.61
2022-08-22T10:18:10.531Z,49.43
2022-08-22T10:28:08.415Z,52.19
2022-08-22T10:38:10.553Z,47.96
2022-08-22T10:48:10.055Z,47.94
2022-08-22T10:58:09.295Z,56.44
2022-08-22T11:08:09.014Z,50.36
2022-08-22T11:18:12.877Z,50.73
2022-08-22T11:28:09.342Z,53.03
2022-08-22T11:38:11.123Z,53.06
2022-08-22T11:48:09.646Z,47.31
2022-08-22T11:58:09.797Z,48.65
2022-08-22T12:08:11.253Z,46.75
2022-08-22T12:18:10.073Z,47.99
2022-08-22T12:28:10.252Z,41.00
2022-08-22T12:38:28.483Z,44.02
2022-08-22T12:48:11.633Z,39.79
2022-08-22T12:58:10.840Z,40.25
2022-08-22T13:08:11.045Z,41.47
2022-08-22T13:18:29.468Z,40.45
2022-08-22T13:28:12.400Z,41.69
2022-08-22T13:38:12.329Z,42.52
2022-08-22T13:48:11.991Z,41.47
2022-08-22T13:58:12.107Z,41.49
2022-08-22T14:08:12.824Z,38.60
2022-08-22T14:18:12.102Z,40.33
2022-08-22T14:28:12.484Z,40.41
2022-08-22T14:38:17.266Z,46.41
2022-08-22T14:48:29.299Z,36.86
2022-08-22T14:58:13.814Z,36.16
2022-08-22T15:08:12.964Z,37.94
2022-08-22T15:18:13.171Z,37.63
2022-08-22T15:28:14.382Z,36.44
2022-08-22T15:38:14.537Z,35.89
2022-08-22T15:48:13.786Z,34.70
2022-08-22T15:58:14.069Z,35.73
2022-08-22T16:08:14.079Z,39.64
2022-08-22T16:18:14.290Z,36.40
2022-08-22T16:28:14.462Z,37.35
2022-08-22T16:38:14.643Z,36.35
2022-08-22T16:48:14.856Z,41.37
2022-08-22T16:58:15.048Z,42.00
2022-08-22T17:08:15.207Z,44.36
2022-08-22T17:18:15.370Z,46.72
2022-08-22T17:28:15.650Z,47.24
2022-08-22T17:38:15.722Z,49.11
2022-08-22T17:48:16.250Z,50.28
2022-08-22T17:58:37.536Z,51.84
2022-08-22T18:18:17.454Z,56.18
2022-08-22T18:28:16.624Z,56.41
2022-08-22T18:38:20.205Z,58.73
2022-08-22T18:48:17.027Z,57.17
2022-08-22T18:58:17.228Z,58.29
2022-08-22T19:08:17.407Z,60.02
2022-08-22T19:18:17.571Z,56.92
2022-08-22T19:28:17.736Z,55.29
2022-08-22T19:38:17.929Z,55.89
2022-08-22T19:48:18.108Z,56.52
2022-08-22T19:58:18.266Z,62.74
2022-08-22T20:08:20.286Z,67.68
2022-08-22T20:28:19.726Z,68.62
2022-08-22T20:38:19.018Z,63.17
2022-08-22T20:48:19.065Z,59.20
2022-08-22T20:58:19.235Z,55.77
2022-08-22T21:08:19.396Z,58.07
2022-08-22T21:18:19.561Z,55.47
2022-08-22T21:28:19.715Z,53.57
2022-08-22T21:38:20.141Z,55.22
2022-08-22T21:48:20.096Z,56.52
2022-08-22T21:58:36.757Z,58.69
2022-08-22T22:08:21.417Z,62.39
2022-08-22T22:18:20.584Z,64.79
2022-08-22T22:28:20.763Z,69.82
2022-08-22T22:38:24.069Z,73.05
2022-08-22T22:48:24.491Z,73.69
2022-08-22T22:58:21.251Z,73.99
2022-08-22T23:08:21.405Z,74.43
2022-08-22T23:18:30.306Z,76.18
2022-08-22T23:28:22.744Z,77.64
2022-08-22T23:38:21.924Z,77.13
2022-08-22T23:48:22.051Z,77.23
2022-08-22T23:58:22.208Z,79.93
